Time;durP1;ratioP1;P1;durP2;ratioP2;P2;SDS_P1;SDS_P2;PMS_P1;PMS_P2;Temp;Humidity;BMP_temperature;BMP_pressure;BME280_temperature;BME280_humidity;BME280_pressure;Samples;Min_cycle;Max_cycle;Signal;HPM_P1;HPM_P2
2022/04/18 00:01:28;;;;;;;14.97;12.80;;;;;;;3.42;72.86;102487.19;4972614;28;20493;-44
2022/04/18 00:03:56;;;;;;;14.53;13.00;;;;;;;3.41;73.08;102482.88;4972894;28;20487;-50
2022/04/18 00:06:23;;;;;;;12.73;11.60;;;;;;;3.43;73.72;102475.72;4973164;28;20852;-44
2022/04/18 00:08:51;;;;;;;14.23;12.80;;;;;;;3.46;74.04;102474.66;4972816;28;20474;-42
2022/04/18 00:11:19;;;;;;;14.23;12.47;;;;;;;3.46;73.63;102477.28;4972490;28;20988;-46
2022/04/18 00:13:46;;;;;;;14.53;12.80;;;;;;;3.47;74.14;102474.53;4972404;28;20463;-50
2022/04/18 00:16:14;;;;;;;14.10;12.30;;;;;;;3.44;74.02;102480.00;4973139;28;20434;-45
2022/04/18 00:18:43;;;;;;;14.33;13.00;;;;;;;3.37;73.87;102470.88;4972806;28;20446;-42
2022/04/18 00:21:10;;;;;;;18.43;13.70;;;;;;;3.30;74.15;102473.09;4972765;28;20545;-44
2022/04/18 00:23:38;;;;;;;15.37;13.13;;;;;;;3.19;74.19;102466.88;4972372;28;20829;-46
2022/04/18 00:26:05;;;;;;;18.30;13.53;;;;;;;3.10;74.24;102478.91;4972813;28;20434;-43
2022/04/18 00:28:33;;;;;;;13.93;12.60;;;;;;;3.04;74.35;102470.56;4972842;28;20488;-46
2022/04/18 00:31:01;;;;;;;12.40;11.10;;;;;;;3.00;74.79;102471.72;4972554;28;20455;-46
2022/04/18 00:33:29;;;;;;;13.93;11.60;;;;;;;2.94;74.59;102467.72;4972488;28;20469;-44
2022/04/18 00:35:58;;;;;;;13.47;12.07;;;;;;;2.90;74.34;102460.16;4972866;28;20435;-46
2022/04/18 00:38:26;;;;;;;14.90;12.17;;;;;;;2.86;74.99;102461.31;4972784;28;20793;-44
2022/04/18 00:40:54;;;;;;;17.13;15.10;;;;;;;2.86;75.11;102467.41;4972411;28;20454;-46
2022/04/18 00:43:38;;;;;;;17.47;13.70;;;;;;;2.85;75.04;102467.50;4972127;28;20485;-47
2022/04/18 00:46:06;;;;;;;17.20;11.33;;;;;;;2.84;75.48;102465.84;4972748;28;20431;-49
2022/04/18 00:48:34;;;;;;;15.97;13.00;;;;;;;2.82;75.33;102467.72;4972564;28;20521;-44
2022/04/18 00:51:05;;;;;;;14.50;11.80;;;;;;;2.79;75.36;102468.78;4972441;28;20457;-46
2022/04/18 00:53:33;;;;;;;16.70;12.80;;;;;;;2.82;76.16;102465.09;4972192;28;20537;-45
2022/04/18 00:56:01;;;;;;;15.17;13.67;;;;;;;2.93;77.39;102468.66;4972418;28;20435;-46
2022/04/18 00:58:29;;;;;;;14.27;12.87;;;;;;;2.96;77.34;102470.25;4972836;28;20441;-43
2022/04/18 01:00:56;;;;;;;15.13;13.63;;;;;;;3.01;77.31;102465.50;4972166;28;20464;-45
2022/04/18 01:03:24;;;;;;;17.03;14.03;;;;;;;3.03;77.90;102446.00;4974963;28;21074;-47
2022/04/18 01:05:52;;;;;;;16.37;13.10;;;;;;;3.11;78.20;102448.09;4976062;28;20810;-45
2022/04/18 01:08:22;;;;;;;18.40;15.83;;;;;;;3.14;78.23;102447.88;4975743;28;20449;-44
2022/04/18 01:10:50;;;;;;;16.47;13.27;;;;;;;3.11;77.75;102451.56;4975492;28;20446;-44
2022/04/18 01:13:18;;;;;;;13.60;12.43;;;;;;;3.01;77.47;102454.97;4975350;28;20463;-44
2022/04/18 01:15:46;;;;;;;13.90;12.50;;;;;;;2.93;77.62;102460.75;4975726;28;20933;-44
2022/04/18 01:18:13;;;;;;;17.27;13.33;;;;;;;2.87;77.68;102453.28;4975800;28;20462;-44
2022/04/18 01:20:44;;;;;;;14.77;13.30;;;;;;;2.85;77.77;102457.81;4975473;28;20450;-44
2022/04/18 01:23:11;;;;;;;14.80;13.30;;;;;;;2.83;78.20;102453.59;4975195;28;20455;-45
2022/04/18 01:31:10;;;;;;;13.80;12.37;;;;;;;2.67;77.44;102452.00;4975244;28;20812;-47
2022/04/18 01:33:38;;;;;;;14.53;13.10;;;;;;;2.62;77.52;102438.31;4974970;28;20972;-47
2022/04/18 01:36:07;;;;;;;12.97;11.87;;;;;;;2.54;77.86;102437.97;4975650;28;20862;-44
2022/04/18 01:38:35;;;;;;;13.90;12.70;;;;;;;2.49;78.06;102444.50;4975509;28;20438;-49
2022/04/18 01:41:02;;;;;;;13.67;12.47;;;;;;;2.45;77.63;102441.22;4975257;28;20454;-46
2022/04/18 01:43:30;;;;;;;14.90;13.00;;;;;;;2.43;77.90;102437.00;4974900;28;20471;-46
2022/04/18 01:45:58;;;;;;;15.67;14.23;;;;;;;2.39;78.16;102443.44;4975014;28;20456;-45
2022/04/18 01:48:25;;;;;;;18.10;12.90;;;;;;;2.39;78.46;102431.09;4975375;28;20434;-45
2022/04/18 01:50:53;;;;;;;14.03;12.70;;;;;;;2.40;78.81;102426.69;4974926;28;20483;-45
2022/04/18 01:53:22;;;;;;;14.97;12.83;;;;;;;2.41;78.71;102421.34;4974730;28;20839;-50
2022/04/18 01:55:50;;;;;;;13.00;11.80;;;;;;;2.43;78.86;102419.44;4975059;28;20435;-46
2022/04/18 01:58:18;;;;;;;14.73;13.17;;;;;;;2.47;78.59;102430.59;4974962;28;20443;-45
2022/04/18 02:00:45;;;;;;;12.27;11.07;;;;;;;2.47;78.93;102428.81;4974475;28;20987;-46
2022/04/18 02:03:13;;;;;;;12.93;11.73;;;;;;;2.48;78.62;102414.69;4974877;28;20477;-44
2022/04/18 02:05:42;;;;;;;14.00;12.70;;;;;;;2.48;78.85;102416.50;4974990;28;20837;-48
2022/04/18 02:08:10;;;;;;;12.27;11.17;;;;;;;2.47;78.39;102420.06;4974802;28;20439;-44
2022/04/18 02:10:39;;;;;;;18.90;12.10;;;;;;;2.46;78.90;102413.09;4974399;28;20482;-47
2022/04/18 02:13:07;;;;;;;13.30;11.90;;;;;;;2.46;78.57;102407.84;4973914;28;20474;-45
2022/04/18 02:15:34;;;;;;;15.50;13.53;;;;;;;2.52;78.61;102412.69;4974914;28;20434;-47
2022/04/18 02:18:02;;;;;;;13.90;12.60;;;;;;;2.53;78.82;102409.97;4974974;28;20439;-49
2022/04/18 02:20:30;;;;;;;12.93;11.73;;;;;;;2.54;78.81;102403.75;4974443;28;20437;-46
2022/04/18 02:22:57;;;;;;;14.90;13.07;;;;;;;2.53;79.21;102403.84;4974127;28;20478;-44
2022/04/18 02:25:25;;;;;;;12.80;11.50;;;;;;;2.44;78.36;102396.59;4974428;28;20434;-44
2022/04/18 02:27:54;;;;;;;13.30;12.10;;;;;;;2.33;77.83;102393.84;4974385;28;20427;-42
2022/04/18 02:30:22;;;;;;;11.93;10.80;;;;;;;2.21;77.99;102393.69;4974160;28;20484;-45
2022/04/18 02:32:49;;;;;;;13.93;11.27;;;;;;;2.11;77.70;102389.16;4973845;28;21000;-47
2022/04/18 02:35:19;;;;;;;11.87;10.70;;;;;;;2.05;77.61;102390.41;4974386;28;20441;-46
2022/04/18 02:37:47;;;;;;;12.30;11.23;;;;;;;2.00;77.91;102394.31;4974198;28;20952;-43
2022/04/18 02:40:15;;;;;;;13.23;11.10;;;;;;;1.93;78.63;102383.34;4973990;28;20937;-42
2022/04/18 02:42:43;;;;;;;11.67;10.47;;;;;;;1.91;78.61;102387.00;4973718;28;20470;-42
2022/04/18 02:45:14;;;;;;;13.00;10.87;;;;;;;1.88;78.85;102381.94;4974199;28;20441;-44
2022/04/18 02:47:41;;;;;;;15.03;11.87;;;;;;;1.89;78.79;102379.19;4974066;28;20439;-47
2022/04/18 02:50:09;;;;;;;14.03;12.53;;;;;;;2.01;80.38;102382.81;4973848;28;20478;-45
2022/04/18 02:52:37;;;;;;;19.57;15.50;;;;;;;2.17;81.53;102384.34;4973287;28;20481;-45
2022/04/18 02:55:06;;;;;;;16.27;14.37;;;;;;;2.32;81.94;102389.50;4974133;28;20435;-44
2022/04/18 02:57:35;;;;;;;19.23;15.43;;;;;;;2.46;83.03;102384.16;4973857;28;20441;-44
2022/04/18 03:00:04;;;;;;;17.40;14.37;;;;;;;2.57;83.23;102377.19;4973835;28;20518;-50
2022/04/18 03:02:33;;;;;;;19.70;15.07;;;;;;;2.63;83.02;102373.28;4973011;28;21016;-43
2022/04/18 03:05:01;;;;;;;15.30;13.80;;;;;;;2.66;83.00;102376.56;4973696;28;20445;-48
2022/04/18 03:07:28;;;;;;;13.23;11.93;;;;;;;2.54;82.36;102372.13;4973947;28;20443;-42
2022/04/18 03:09:56;;;;;;;15.27;11.93;;;;;;;2.42;81.97;102372.16;4973812;28;20485;-46
2022/04/18 03:12:25;;;;;;;11.07;10.07;;;;;;;2.25;81.95;102368.00;4973121;28;20840;-48
2022/04/18 03:14:53;;;;;;;10.97;9.93;;;;;;;2.14;81.69;102363.50;4973932;28;20442;-46
2022/04/18 03:17:20;;;;;;;11.80;10.80;;;;;;;2.06;81.72;102357.06;4973640;28;20932;-43
2022/04/18 03:19:49;;;;;;;16.53;11.30;;;;;;;1.96;81.71;102351.56;4973438;28;20796;-46
2022/04/18 03:22:17;;;;;;;11.20;10.23;;;;;;;1.91;82.13;102350.19;4972928;28;20933;-45
2022/04/18 03:24:51;;;;;;;12.80;11.60;;;;;;;1.84;81.91;102355.00;4973008;28;20435;-45
2022/04/18 03:27:20;;;;;;;13.40;12.20;;;;;;;1.79;82.08;102351.84;4973490;28;20435;-46
2022/04/18 03:29:48;;;;;;;10.70;9.77;;;;;;;1.74;82.17;102348.66;4973290;28;20439;-46
2022/04/18 03:32:16;;;;;;;10.87;9.97;;;;;;;1.70;82.17;102344.56;4972512;28;20475;-44
2022/04/18 03:34:44;;;;;;;10.53;9.70;;;;;;;1.69;81.76;102350.75;4973589;28;20529;-44
2022/04/18 03:39:58;;;;;;;13.27;11.97;;;;;;;1.74;83.36;102353.91;4973366;28;20801;-46
2022/04/18 03:42:30;;;;;;;16.43;12.20;;;;;;;1.89;84.50;102359.94;4972589;28;20473;-43
2022/04/18 03:45:00;;;;;;;18.00;14.17;;;;;;;2.03;85.21;102355.44;4973256;28;20427;-46
2022/04/18 03:47:28;;;;;;;15.03;13.40;;;;;;;2.16;85.81;102347.56;4973024;28;20427;-47
2022/04/18 03:49:56;;;;;;;13.50;11.37;;;;;;;2.28;85.85;102352.00;4973332;28;20435;-46
2022/04/18 03:52:26;;;;;;;13.53;11.17;;;;;;;2.37;86.12;102348.75;4972641;28;20478;-47
2022/04/18 03:54:54;;;;;;;11.70;10.60;;;;;;;2.37;85.51;102338.22;4973123;28;20435;-50
2022/04/18 03:57:21;;;;;;;11.83;10.63;;;;;;;2.32;84.94;102339.50;4973114;28;20435;-46
2022/04/18 03:59:49;;;;;;;11.23;10.43;;;;;;;2.24;84.41;102348.75;4973223;28;20957;-49
2022/04/18 04:02:17;;;;;;;11.70;10.53;;;;;;;2.17;84.19;102342.22;4972235;28;20806;-44
2022/04/18 04:04:44;;;;;;;11.63;10.43;;;;;;;2.08;83.23;102340.22;4973059;28;20438;-45
2022/04/18 04:07:12;;;;;;;12.00;10.80;;;;;;;2.04;83.10;102336.09;4973154;28;20471;-44
2022/04/18 04:09:41;;;;;;;12.93;11.20;;;;;;;2.00;83.10;102334.59;4972955;28;20435;-47
2022/04/18 04:12:09;;;;;;;12.10;10.97;;;;;;;1.97;82.65;102326.09;4972111;28;20471;-47
2022/04/18 04:14:36;;;;;;;12.97;11.30;;;;;;;1.97;83.08;102336.63;4973111;28;20786;-47
2022/04/18 04:17:05;;;;;;;12.73;11.57;;;;;;;1.99;82.63;102332.09;4973037;28;20438;-44
2022/04/18 04:19:33;;;;;;;13.20;12.10;;;;;;;2.04;83.67;102330.81;4973002;28;20435;-47
2022/04/18 04:22:01;;;;;;;14.20;12.30;;;;;;;2.10;83.68;102335.69;4971195;28;20459;-46
2022/04/18 04:24:28;;;;;;;14.13;12.73;;;;;;;2.14;84.46;102328.44;4964702;28;20438;-48
2022/04/18 04:26:57;;;;;;;15.03;13.73;;;;;;;2.23;84.74;102326.03;4973408;28;20443;-45
2022/04/18 04:29:25;;;;;;;17.47;13.20;;;;;;;2.41;86.33;102323.91;4972214;28;20438;-43
2022/04/18 04:31:52;;;;;;;15.17;13.67;;;;;;;2.72;87.12;102333.16;4971353;28;20839;-45
2022/04/18 04:34:20;;;;;;;15.20;13.80;;;;;;;2.88;87.00;102332.91;4972865;28;20457;-45
2022/04/18 04:36:47;;;;;;;16.13;13.53;;;;;;;3.12;87.57;102331.19;4974766;28;20439;-47
2022/04/18 04:39:15;;;;;;;15.77;14.23;;;;;;;3.48;88.48;102328.53;4976658;28;20434;-44
2022/04/18 04:41:43;;;;;;;15.43;13.80;;;;;;;3.79;88.75;102333.19;4975828;28;20466;-42
2022/04/18 04:44:12;;;;;;;14.60;13.10;;;;;;;4.21;88.89;102328.31;4975806;28;20947;-43
2022/04/18 04:46:39;;;;;;;14.00;11.80;;;;;;;4.62;88.56;102322.47;4976050;28;20936;-46
2022/04/18 04:49:09;;;;;;;11.93;10.90;;;;;;;5.11;88.39;102316.81;4963658;28;20436;-44
2022/04/18 04:51:37;;;;;;;13.80;12.37;;;;;;;5.91;89.03;102318.94;4933554;28;20502;-44
2022/04/18 04:54:05;;;;;;;11.30;10.30;;;;;;;6.95;88.38;102318.81;4957009;29;20436;-45
2022/04/18 04:56:32;;;;;;;12.87;10.63;;;;;;;7.95;86.63;102312.34;4956943;29;20440;-47
2022/04/18 04:59:00;;;;;;;14.70;11.37;;;;;;;8.76;83.16;102315.25;4956245;29;20794;-45
2022/04/18 05:01:29;;;;;;;10.23;9.37;;;;;;;9.48;78.87;102311.75;4955787;28;20833;-49
2022/04/18 05:03:56;;;;;;;10.37;9.47;;;;;;;10.29;74.92;102304.47;4956405;29;20581;-50
2022/04/18 05:06:24;;;;;;;12.87;10.00;;;;;;;11.05;70.42;102305.38;4956286;29;20952;-48
2022/04/18 05:08:52;;;;;;;10.23;9.27;;;;;;;11.87;68.80;102294.69;4956579;29;20436;-48
2022/04/18 05:11:19;;;;;;;10.90;9.90;;;;;;;12.43;63.93;102299.13;4955533;28;20845;-50
2022/04/18 05:13:47;;;;;;;10.10;9.20;;;;;;;12.92;59.60;102285.56;4955805;29;20991;-43
2022/04/18 05:16:15;;;;;;;11.90;10.80;;;;;;;13.48;56.47;102287.13;4956258;29;21177;-46
2022/04/18 05:18:44;;;;;;;11.30;10.30;;;;;;;13.94;53.50;102291.47;4956449;29;20470;-45
2022/04/18 05:21:11;;;;;;;11.50;10.40;;;;;;;14.48;52.24;102280.56;4955466;28;20467;-49
2022/04/18 05:23:39;;;;;;;10.63;9.63;;;;;;;15.04;51.04;102284.38;4956310;29;20432;-46
2022/04/18 05:26:07;;;;;;;10.43;9.37;;;;;;;15.72;49.62;102284.75;4956256;28;20818;-49
2022/04/18 05:28:35;;;;;;;11.27;10.37;;;;;;;16.11;47.53;102286.94;4955583;29;20951;-47
2022/04/18 05:31:03;;;;;;;12.33;11.23;;;;;;;16.31;46.16;102284.38;4953520;28;20494;-45
2022/04/18 05:33:30;;;;;;;14.03;12.73;;;;;;;16.65;44.82;102275.50;4956157;29;20443;-46
2022/04/18 05:35:59;;;;;;;12.40;11.33;;;;;;;16.68;43.35;102283.19;4956052;29;20440;-47
2022/04/18 05:38:27;;;;;;;11.80;10.70;;;;;;;16.62;43.76;102286.69;4956077;29;20436;-46
2022/04/18 05:40:55;;;;;;;12.70;11.60;;;;;;;17.09;43.82;102282.13;4954808;28;21009;-45
2022/04/18 05:43:22;;;;;;;13.77;12.50;;;;;;;17.45;42.36;102278.28;4955306;29;20930;-47
2022/04/18 05:45:50;;;;;;;14.00;12.90;;;;;;;17.34;39.50;102277.03;4964518;28;20441;-46
2022/04/18 05:48:18;;;;;;;16.50;15.03;;;;;;;17.39;40.52;102276.41;4974478;28;20808;-47
2022/04/18 05:50:47;;;;;;;13.97;12.87;;;;;;;17.41;41.03;102285.13;4952248;28;20519;-46
2022/04/18 05:53:17;;;;;;;14.50;12.23;;;;;;;17.83;38.01;102286.69;4974667;28;20463;-45
2022/04/18 05:55:44;;;;;;;12.67;11.67;;;;;;;17.89;39.37;102278.56;4974793;28;21030;-48
2022/04/18 05:58:12;;;;;;;11.80;10.70;;;;;;;18.35;40.32;102288.50;4974720;28;20832;-50
2022/04/18 06:00:39;;;;;;;10.83;9.03;;;;;;;18.65;36.19;102274.34;4974544;28;20794;-45
2022/04/18 06:03:07;;;;;;;10.60;9.60;;;;;;;18.90;38.28;102279.88;4974388;28;20844;-48
2022/04/18 06:05:35;;;;;;;9.73;8.93;;;;;;;19.00;38.40;102277.53;4974811;28;20430;-44
2022/04/18 06:08:03;;;;;;;10.67;9.77;;;;;;;19.04;37.55;102272.53;4974864;28;20442;-49
2022/04/18 06:10:33;;;;;;;9.10;8.40;;;;;;;19.32;37.84;102273.00;4974232;28;20434;-45
2022/04/18 06:13:01;;;;;;;10.73;9.73;;;;;;;19.35;37.23;102278.78;4973354;28;20475;-43
2022/04/18 06:15:29;;;;;;;9.37;8.60;;;;;;;19.35;34.87;102267.97;4974684;28;20885;-46
2022/04/18 06:17:56;;;;;;;10.70;9.80;;;;;;;19.13;34.73;102269.34;4974495;28;20532;-44
2022/04/18 06:20:24;;;;;;;9.37;8.57;;;;;;;19.20;34.77;102270.13;4974127;28;20438;-46
2022/04/18 06:22:51;;;;;;;10.33;9.33;;;;;;;19.54;34.54;102281.63;4973914;28;20467;-45
2022/04/18 06:25:19;;;;;;;9.47;8.50;;;;;;;19.25;33.62;102285.72;4974354;28;20434;-50
2022/04/18 06:27:48;;;;;;;9.83;8.90;;;;;;;19.41;31.62;102284.44;4974079;28;20438;-45
2022/04/18 06:30:15;;;;;;;8.27;7.67;;;;;;;19.21;32.82;102288.03;4974236;28;20449;-46
2022/04/18 06:32:43;;;;;;;8.80;8.00;;;;;;;19.10;32.01;102280.59;4973801;28;20486;-49
2022/04/18 06:35:11;;;;;;;9.60;8.70;;;;;;;19.18;34.03;102285.75;4974584;28;20434;-46
2022/04/18 06:37:39;;;;;;;8.30;7.50;;;;;;;19.67;31.52;102281.53;4973940;28;20438;-45
2022/04/18 06:40:07;;;;;;;9.00;8.27;;;;;;;19.76;32.57;102285.63;4973889;28;20474;-49
2022/04/18 06:42:35;;;;;;;9.57;8.87;;;;;;;19.93;33.14;102289.44;4973055;28;20470;-46
2022/04/18 06:45:05;;;;;;;8.50;7.80;;;;;;;20.08;31.41;102280.97;4973903;28;20460;-48
2022/04/18 06:47:33;;;;;;;10.23;9.40;;;;;;;20.06;32.34;102283.09;4972105;28;20436;-47
2022/04/18 06:50:01;;;;;;;9.90;8.90;;;;;;;19.62;31.77;102295.72;4973983;28;20438;-46
2022/04/18 06:52:28;;;;;;;9.33;8.63;;;;;;;19.27;32.30;102289.88;4973137;28;20490;-45
2022/04/18 06:54:56;;;;;;;8.40;7.80;;;;;;;18.86;33.38;102292.16;4973627;28;20460;-48
2022/04/18 06:57:22;;;;;;;10.43;9.53;;;;;;;18.87;34.35;102288.41;4973802;28;21027;-46
2022/04/18 06:59:50;;;;;;;9.53;8.57;;;;;;;18.31;34.94;102290.78;4973043;28;20441;-49
2022/04/18 07:02:19;;;;;;;9.40;8.60;;;;;;;17.95;35.41;102291.22;4973303;28;20488;-50
2022/04/18 07:04:46;;;;;;;9.43;8.67;;;;;;;17.92;36.01;102286.25;4973823;28;21056;-46
2022/04/18 07:07:14;;;;;;;9.70;8.90;;;;;;;17.72;36.13;102293.50;4973525;28;20441;-47
2022/04/18 07:09:42;;;;;;;10.33;9.50;;;;;;;17.50;36.00;102292.81;4973496;28;20430;-48
2022/04/18 07:12:09;;;;;;;10.47;9.67;;;;;;;17.35;36.91;102297.53;4972480;28;21011;-45
2022/04/18 07:14:38;;;;;;;9.60;8.70;;;;;;;16.97;38.46;102281.03;4973690;28;20438;-45
2022/04/18 07:17:06;;;;;;;9.33;8.60;;;;;;;17.46;38.32;102285.34;4973445;28;20442;-50
2022/04/18 07:19:35;;;;;;;10.17;9.47;;;;;;;17.54;38.16;102282.44;4973571;28;20434;-47
2022/04/18 07:22:03;;;;;;;14.57;9.53;;;;;;;17.50;38.60;102284.72;4972832;28;20470;-47
2022/04/18 07:24:31;;;;;;;10.10;9.20;;;;;;;17.56;37.46;102285.81;4973034;28;20446;-48
2022/04/18 07:27:01;;;;;;;11.33;9.67;;;;;;;17.41;37.41;102279.75;4973620;28;20442;-48
2022/04/18 07:29:31;;;;;;;10.57;9.67;;;;;;;16.84;38.63;102280.16;4973438;28;20466;-46
2022/04/18 07:31:59;;;;;;;10.30;9.50;;;;;;;16.41;40.54;102283.00;4972462;28;20474;-46
2022/04/18 07:34:28;;;;;;;10.43;9.53;;;;;;;16.01;41.09;102281.88;4973434;28;20801;-44
2022/04/18 07:36:57;;;;;;;12.07;10.97;;;;;;;15.78;40.72;102288.50;4973215;28;20438;-47
2022/04/18 07:39:24;;;;;;;10.07;9.20;;;;;;;15.71;41.12;102288.44;4972811;28;20928;-47
2022/04/18 07:41:52;;;;;;;11.50;10.40;;;;;;;14.96;44.89;102288.84;4972426;28;20469;-50
2022/04/18 07:44:20;;;;;;;12.10;10.83;;;;;;;14.96;43.03;102279.97;4973186;28;20439;-47
2022/04/18 07:46:48;;;;;;;12.10;11.07;;;;;;;14.88;42.16;102277.38;4973214;28;20800;-45
2022/04/18 07:49:16;;;;;;;13.47;11.43;;;;;;;14.76;41.42;102282.38;4973126;28;20435;-49
2022/04/18 07:51:43;;;;;;;11.80;10.70;;;;;;;14.72;41.05;102283.81;4972401;28;20473;-46
2022/04/18 07:54:14;;;;;;;12.63;11.33;;;;;;;14.89;41.07;102276.38;4972441;28;20988;-48
2022/04/18 07:56:43;;;;;;;10.57;9.53;;;;;;;14.97;40.50;102281.63;4973018;28;20999;-49
2022/04/18 07:59:11;;;;;;;12.00;10.80;;;;;;;14.99;42.53;102282.28;4973169;28;20438;-46
2022/04/18 08:01:39;;;;;;;11.97;10.87;;;;;;;15.08;42.47;102278.47;4971996;28;20475;-46
2022/04/18 08:04:07;;;;;;;12.67;10.13;;;;;;;15.28;42.08;102270.63;4973082;28;20434;-50
2022/04/18 08:06:35;;;;;;;11.47;10.20;;;;;;;15.32;40.52;102277.28;4972877;28;20443;-47
2022/04/18 08:09:03;;;;;;;13.17;10.67;;;;;;;15.26;40.95;102276.16;4972226;28;20936;-49
2022/04/18 08:11:32;;;;;;;11.00;9.50;;;;;;;15.30;43.83;102271.25;4973924;28;20470;-48
2022/04/18 08:13:59;;;;;;;11.10;10.00;;;;;;;15.33;43.35;102274.41;4976908;28;21020;-44
2022/04/18 08:16:27;;;;;;;10.10;9.30;;;;;;;15.35;44.42;102274.22;4976751;28;20813;-45
2022/04/18 08:18:56;;;;;;;11.73;10.70;;;;;;;15.13;45.92;102277.88;4976937;28;20457;-45
2022/04/18 08:21:24;;;;;;;12.33;10.90;;;;;;;14.63;48.35;102282.22;4976013;28;20481;-47
2022/04/18 08:23:52;;;;;;;13.03;11.80;;;;;;;14.59;45.41;102269.34;4976525;28;20438;-45
2022/04/18 08:26:21;;;;;;;12.90;11.40;;;;;;;14.49;46.18;102282.19;4976580;28;20996;-45
2022/04/18 08:28:51;;;;;;;13.07;11.20;;;;;;;14.43;45.36;102273.03;4976700;28;20441;-45
2022/04/18 08:31:19;;;;;;;12.07;10.67;;;;;;;14.64;45.15;102274.97;4975846;28;20502;-47
2022/04/18 08:33:47;;;;;;;12.63;10.23;;;;;;;14.63;45.56;102274.19;4976589;28;21044;-48
2022/04/18 08:36:15;;;;;;;20.43;11.67;;;;;;;14.66;45.27;102276.50;4976247;28;20445;-44
2022/04/18 08:38:43;;;;;;;14.23;12.33;;;;;;;14.57;45.52;102264.19;4976430;28;20788;-46
2022/04/18 08:41:14;;;;;;;13.73;10.90;;;;;;;14.87;42.56;102263.09;4975330;28;20447;-45
2022/04/18 08:43:42;;;;;;;12.87;11.63;;;;;;;14.69;43.70;102268.06;4975537;28;20435;-47
2022/04/18 08:46:11;;;;;;;13.53;11.83;;;;;;;14.87;43.21;102260.41;4970544;28;20495;-45
2022/04/18 08:54:13;;;;;;;12.03;10.97;;;;;;;15.36;41.44;102251.66;4956573;29;20475;-45
2022/04/18 08:56:41;;;;;;;14.77;12.40;;;;;;;15.64;41.44;102258.00;4956641;29;20447;-49
2022/04/18 08:59:09;;;;;;;16.23;13.40;;;;;;;15.67;41.17;102252.22;4956654;29;20443;-50
2022/04/18 09:01:47;;;;;;;14.40;11.23;;;;;;;15.73;40.74;102254.13;4955315;28;20496;-48
2022/04/18 09:04:15;;;;;;;13.67;11.83;;;;;;;15.92;40.75;102245.38;4956926;29;20455;-49
2022/04/18 09:06:43;;;;;;;13.10;11.70;;;;;;;16.09;39.39;102248.63;4956695;29;20435;-50
2022/04/18 09:09:10;;;;;;;12.33;11.07;;;;;;;15.89;39.57;102248.47;4956800;29;20446;-48
2022/04/18 09:11:40;;;;;;;13.43;12.03;;;;;;;15.98;39.78;102246.47;4955692;28;20980;-47
2022/04/18 09:14:09;;;;;;;16.43;12.37;;;;;;;16.06;39.43;102235.56;4956259;29;20486;-46
2022/04/18 09:16:40;;;;;;;12.80;11.23;;;;;;;16.10;38.93;102242.19;4956101;29;20439;-49
2022/04/18 09:19:11;;;;;;;12.20;10.97;;;;;;;15.84;39.17;102239.31;4956402;29;20432;-46
2022/04/18 09:21:43;;;;;;;14.13;12.63;;;;;;;16.12;39.07;102236.63;4953791;28;20472;-48
2022/04/18 09:24:31;;;;;;;12.80;11.50;;;;;;;15.82;43.58;102242.22;4954851;29;20438;-47
2022/04/18 09:27:04;;;;;;;13.80;10.90;;;;;;;16.15;39.10;102231.69;4956560;29;20438;-46
2022/04/18 09:29:33;;;;;;;11.47;10.17;;;;;;;16.27;37.37;102231.97;4956017;29;20435;-47
2022/04/18 09:32:08;;;;;;;12.37;11.17;;;;;;;16.17;37.80;102229.63;4955638;28;20479;-48
2022/04/18 09:34:35;;;;;;;11.40;10.30;;;;;;;16.32;36.25;102224.97;4956020;29;20996;-46
2022/04/18 09:37:10;;;;;;;11.93;10.73;;;;;;;16.49;36.06;102226.28;4956216;29;20443;-47
2022/04/18 09:39:38;;;;;;;9.67;8.80;;;;;;;16.65;35.61;102218.94;4956410;29;20431;-47
2022/04/18 09:42:10;;;;;;;9.43;8.57;;;;;;;16.83;34.41;102222.75;4955475;28;20476;-47
2022/04/18 09:44:38;;;;;;;11.73;10.60;;;;;;;16.85;35.10;102212.59;4955536;28;20823;-47
2022/04/18 09:47:07;;;;;;;11.23;10.20;;;;;;;16.82;34.79;102220.25;4974330;28;20800;-47
2022/04/18 09:49:38;;;;;;;11.17;10.00;;;;;;;16.93;35.09;102220.53;4957746;28;20464;-49
2022/04/18 09:52:07;;;;;;;9.50;8.53;;;;;;;17.07;32.59;102218.69;4955061;28;20471;-45
2022/04/18 09:54:35;;;;;;;7.37;6.70;;;;;;;17.19;29.96;102217.06;4955767;28;20480;-47
2022/04/18 09:57:05;;;;;;;8.93;8.03;;;;;;;17.22;31.36;102210.41;4955717;28;20543;-50
2022/04/18 09:59:33;;;;;;;9.70;8.90;;;;;;;17.27;32.07;102206.06;4955499;28;20432;-49
2022/04/18 10:02:01;;;;;;;10.90;9.80;;;;;;;17.33;31.95;102207.94;4954997;28;20472;-44
2022/04/18 10:04:31;;;;;;;9.17;8.30;;;;;;;17.17;31.51;102210.22;4955744;28;20565;-45
2022/04/18 10:07:00;;;;;;;11.10;8.20;;;;;;;17.33;30.06;102213.34;4955710;28;20439;-49
2022/04/18 10:09:32;;;;;;;9.30;8.40;;;;;;;17.32;30.93;102200.91;4961711;28;20530;-49
2022/04/18 10:12:00;;;;;;;9.60;8.80;;;;;;;17.26;30.55;102212.50;4967363;28;20467;-49
2022/04/18 10:14:28;;;;;;;13.53;11.90;;;;;;;17.17;32.17;102200.25;4974449;28;20812;-47
2022/04/18 10:16:57;;;;;;;12.17;10.87;;;;;;;17.11;32.41;102199.19;4974582;28;20446;-48
2022/04/18 10:19:43;;;;;;;9.90;8.90;;;;;;;17.30;32.06;102197.56;4974961;28;20439;-43
2022/04/18 10:22:33;;;;;;;8.93;8.23;;;;;;;17.45;29.34;102198.22;4974598;28;20467;-46
2022/04/18 10:25:09;;;;;;;9.13;8.50;;;;;;;17.55;30.93;102197.84;4974585;28;20427;-49
2022/04/18 10:28:09;;;;;;;14.90;13.70;;;;;;;17.56;30.71;102196.81;4974274;28;20438;-47
2022/04/18 10:30:44;;;;;;;10.47;9.57;;;;;;;17.53;32.00;102191.78;4974171;28;20433;-47
2022/04/18 10:33:13;;;;;;;9.70;8.70;;;;;;;17.56;32.03;102186.03;4973977;28;20466;-50
2022/04/18 10:35:53;;;;;;;9.23;8.33;;;;;;;17.79;31.59;102193.69;4989717;22;20485;-46
2022/04/18 10:38:24;;;;;;;10.13;8.93;;;;;;;17.67;31.49;102183.53;4986238;28;20430;-45
2022/04/18 10:41:14;;;;;;;9.57;8.70;;;;;;;17.48;31.55;102175.38;4973554;28;20431;-46
2022/04/18 10:44:01;;;;;;;12.13;9.97;;;;;;;17.62;31.62;102174.41;4956950;28;20459;-46
2022/04/18 10:46:30;;;;;;;10.13;9.23;;;;;;;17.50;30.99;102166.03;4971777;28;20465;-47
2022/04/18 10:48:59;;;;;;;8.60;7.90;;;;;;;17.73;30.99;102172.94;4966715;28;20434;-45
2022/04/18 10:51:29;;;;;;;9.43;8.63;;;;;;;17.69;30.74;102173.34;4968485;28;20475;-47
2022/04/18 10:54:09;;;;;;;9.30;8.50;;;;;;;17.68;31.28;102174.38;4953809;29;20481;-47
2022/04/18 10:56:49;;;;;;;10.37;9.43;;;;;;;17.59;31.69;102169.41;4954639;28;20459;-50
2022/04/18 10:59:19;;;;;;;8.77;8.07;;;;;;;17.77;31.88;102172.28;4954575;29;20427;-49
2022/04/18 11:01:48;;;;;;;7.80;7.10;;;;;;;17.65;30.81;102165.88;4952993;28;20475;-47
2022/04/18 11:04:16;;;;;;;8.63;7.93;;;;;;;17.50;30.28;102166.03;4954248;29;20526;-47
2022/04/18 11:06:50;;;;;;;8.87;8.13;;;;;;;17.27;30.18;102164.78;4953487;29;20455;-49
2022/04/18 11:09:21;;;;;;;8.37;7.67;;;;;;;17.24;29.42;102157.13;4954471;29;20423;-48
2022/04/18 11:12:01;;;;;;;7.33;6.73;;;;;;;17.50;29.27;102159.84;4960464;28;20470;-49
2022/04/18 11:14:31;;;;;;;8.20;7.50;;;;;;;17.72;29.40;102169.38;4973347;28;20478;-47
2022/04/18 11:17:00;;;;;;;8.20;7.40;;;;;;;17.86;29.28;102157.53;4973536;28;20450;-52
2022/04/18 11:19:30;;;;;;;8.00;7.30;;;;;;;17.95;29.52;102155.47;4973555;28;20446;-46
2022/04/18 11:22:21;;;;;;;9.77;8.77;;;;;;;18.04;29.38;102159.59;4971320;28;20477;-45
2022/04/18 11:25:00;;;;;;;9.50;8.50;;;;;;;18.14;29.21;102141.91;4971212;28;20443;-47
2022/04/18 11:27:35;;;;;;;8.50;7.70;;;;;;;18.30;29.57;102147.88;4973071;28;20486;-49
2022/04/18 11:30:07;;;;;;;10.23;8.20;;;;;;;18.08;28.57;102144.63;4973013;28;20884;-47
2022/04/18 11:32:37;;;;;;;9.53;8.60;;;;;;;17.99;29.19;102138.63;4971854;28;20467;-49
2022/04/18 11:35:13;;;;;;;7.40;6.63;;;;;;;18.19;28.98;102135.84;4973179;28;20470;-49
2022/04/18 11:37:44;;;;;;;7.00;6.30;;;;;;;18.39;29.91;102136.63;4972453;28;20473;-45
2022/04/18 11:40:13;;;;;;;7.70;7.00;;;;;;;18.52;29.56;102128.47;4972730;28;20445;-47